createdAt,value
2022-09-05T00:00:23.601Z,90.11
2022-09-05T00:02:56.310Z,90.17
2022-09-05T00:05:33.693Z,91.89
2022-09-05T00:08:14.632Z,93.04
2022-09-05T00:11:39.830Z,92.85
2022-09-05T00:14:07.682Z,91.94
2022-09-05T00:16:52.239Z,93.00
2022-09-05T00:24:22.790Z,92.80
2022-09-05T00:24:32.632Z,92.15
2022-09-05T00:26:13.309Z,91.95
2022-09-05T00:29:03.072Z,91.92
2022-09-05T00:31:53.910Z,93.08
2022-09-05T00:34:59.928Z,92.85
2022-09-05T00:37:34.120Z,92.49
2022-09-05T00:40:19.117Z,91.90
2022-09-05T00:42:53.235Z,91.44
2022-09-05T00:45:31.314Z,91.16
2022-09-05T00:48:07.755Z,91.14
2022-09-05T00:50:56.379Z,91.76
2022-09-05T00:53:29.992Z,91.79
2022-09-05T00:56:27.971Z,91.53
2022-09-05T00:59:35.172Z,91.81
2022-09-05T01:02:28.288Z,91.79
2022-09-05T01:05:06.480Z,92.01
2022-09-05T01:07:46.650Z,91.85
2022-09-05T01:10:38.849Z,91.92
2022-09-05T01:13:21.528Z,91.80
2022-09-05T01:16:00.213Z,92.18
2022-09-05T01:18:43.469Z,91.79
2022-09-05T01:21:35.367Z,91.86
2022-09-05T01:24:28.016Z,92.00
2022-09-05T01:28:25.244Z,92.14
2022-09-05T01:30:36.107Z,92.17
2022-09-05T01:33:19.841Z,92.36
2022-09-05T01:36:04.227Z,92.50
2022-09-05T01:38:36.935Z,92.42
2022-09-05T01:41:21.806Z,92.53
2022-09-05T01:44:07.195Z,93.33
2022-09-05T01:46:35.190Z,94.27
2022-09-05T01:49:14.040Z,94.81
2022-09-05T01:52:04.901Z,95.64
2022-09-05T01:54:47.556Z,96.29
2022-09-05T01:57:35.837Z,96.54
2022-09-05T02:00:12.609Z,96.33
2022-09-05T02:03:07.032Z,95.89
2022-09-05T02:05:51.860Z,95.68
2022-09-05T02:08:44.554Z,94.97
2022-09-05T02:11:12.746Z,95.29
2022-09-05T02:13:46.126Z,95.68
2022-09-05T02:16:23.059Z,95.57
2022-09-05T02:19:29.416Z,95.02
2022-09-05T02:22:12.067Z,94.68
2022-09-05T02:24:45.627Z,94.44
2022-09-05T02:28:05.227Z,94.61
2022-09-05T02:30:24.597Z,94.94
2022-09-05T02:32:55.259Z,95.30
2022-09-05T02:35:40.542Z,95.63
2022-09-05T02:40:53.497Z,95.69
2022-09-05T02:45:10.682Z,95.59
2022-09-05T02:45:18.521Z,95.26
2022-09-05T02:47:16.387Z,95.20
2022-09-05T02:52:46.254Z,95.78
2022-09-05T02:57:26.759Z,96.06
2022-09-05T02:57:34.569Z,96.01
2022-09-05T02:59:11.302Z,95.71
2022-09-05T03:01:52.484Z,95.79
2022-09-05T03:04:29.771Z,95.61
2022-09-05T03:07:14.639Z,95.71
2022-09-05T03:09:47.098Z,95.61
2022-09-05T03:12:50.410Z,95.29
2022-09-05T03:15:38.323Z,95.32
2022-09-05T03:18:28.085Z,95.64
2022-09-05T03:21:29.930Z,95.62
2022-09-05T03:24:02.459Z,96.89
2022-09-05T03:26:38.110Z,96.54
2022-09-05T03:29:45.919Z,96.77
2022-09-05T03:32:33.777Z,96.12
2022-09-05T03:35:32.383Z,95.62
2022-09-05T03:38:20.619Z,95.46
2022-09-05T03:41:02.766Z,95.54
2022-09-05T03:44:06.819Z,95.43
2022-09-05T03:47:12.813Z,95.60
2022-09-05T03:54:51.144Z,95.75
2022-09-05T03:57:14.440Z,97.06
2022-09-05T03:57:14.577Z,96.73
2022-09-05T03:59:28.817Z,96.62
2022-09-05T04:04:54.896Z,96.44
2022-09-05T04:08:18.262Z,96.67
2022-09-05T04:08:34.021Z,96.48
2022-09-05T04:11:02.048Z,95.84
2022-09-05T04:13:51.414Z,97.06
2022-09-05T04:16:24.110Z,96.84
2022-09-05T04:18:56.521Z,97.08
2022-09-05T04:21:35.009Z,97.14
2022-09-05T04:24:39.564Z,97.76
2022-09-05T04:27:27.754Z,98.70
2022-09-05T04:29:58.530Z,98.75
2022-09-05T04:32:38.047Z,99.17
2022-09-05T04:35:19.878Z,100.00
2022-09-05T04:38:13.270Z,100.00
2022-09-05T04:40:48.734Z,100.00
2022-09-05T04:43:18.084Z,100.00
2022-09-05T04:46:15.717Z,100.00
2022-09-05T04:48:59.713Z,100.00
2022-09-05T04:52:00.875Z,100.00
2022-09-05T04:54:45.700Z,100.00
2022-09-05T04:57:27.911Z,100.00
2022-09-05T05:05:34.410Z,100.00
2022-09-05T05:06:09.585Z,100.00
2022-09-05T05:06:14.078Z,100.00
2022-09-05T05:08:42.728Z,100.00
2022-09-05T05:17:59.309Z,100.00
2022-09-05T05:18:10.551Z,100.00
2022-09-05T05:18:14.227Z,100.00
2022-09-05T05:20:42.454Z,100.00
2022-09-05T05:23:15.322Z,100.00
2022-09-05T05:25:55.043Z,100.00
2022-09-05T05:28:43.367Z,100.00
2022-09-05T05:31:16.873Z,100.00
2022-09-05T05:33:49.025Z,100.00
2022-09-05T05:36:38.968Z,100.00
2022-09-05T05:39:14.219Z,99.90
2022-09-05T05:41:49.817Z,99.92
2022-09-05T05:44:19.234Z,99.76
2022-09-05T05:46:53.925Z,99.76
2022-09-05T05:49:29.047Z,99.28
2022-09-05T05:52:14.105Z,99.38
2022-09-05T05:55:45.223Z,99.48
2022-09-05T05:58:00.390Z,100.00
2022-09-05T06:00:57.816Z,100.00
2022-09-05T06:03:46.124Z,100.00
2022-09-05T06:06:17.307Z,100.00
2022-09-05T06:11:30.692Z,99.18
2022-09-05T06:14:55.119Z,98.37
2022-09-05T06:15:26.649Z,98.72
2022-09-05T06:17:53.830Z,98.93
2022-09-05T06:22:10.652Z,98.99
2022-09-05T06:24:16.837Z,98.43
2022-09-05T06:27:12.959Z,98.39
2022-09-05T06:30:08.926Z,98.51
2022-09-05T06:33:09.773Z,97.74
2022-09-05T06:35:39.234Z,95.60
2022-09-05T06:38:14.184Z,94.22
2022-09-05T06:41:01.508Z,93.05
2022-09-05T06:44:01.751Z,92.40
2022-09-05T06:46:55.119Z,91.78
2022-09-05T06:49:51.623Z,89.82
2022-09-05T06:52:55.745Z,87.98
2022-09-05T06:55:40.270Z,87.54
2022-09-05T06:58:27.898Z,86.08
2022-09-05T07:01:02.407Z,86.64
2022-09-05T07:04:33.346Z,85.18
2022-09-05T07:07:23.093Z,82.58
2022-09-05T07:10:37.864Z,82.15
2022-09-05T07:13:28.027Z,80.85
2022-09-05T07:16:16.403Z,80.31
2022-09-05T07:19:12.264Z,81.26
2022-09-05T07:21:55.249Z,79.42
2022-09-05T07:24:41.802Z,78.18
2022-09-05T07:27:41.886Z,77.96
2022-09-05T07:30:22.917Z,76.24
2022-09-05T07:32:53.051Z,74.51
2022-09-05T07:35:29.315Z,74.73
2022-09-05T07:38:22.662Z,71.09
2022-09-05T07:41:18.382Z,72.86
2022-09-05T07:43:48.860Z,72.22
2022-09-05T07:46:26.383Z,73.68
2022-09-05T07:49:07.758Z,73.78
2022-09-05T07:55:10.986Z,71.21
2022-09-05T07:57:01.150Z,67.73
2022-09-05T07:57:31.674Z,60.85
2022-09-05T08:00:25.651Z,61.14
2022-09-05T08:02:55.095Z,59.87
2022-09-05T08:05:34.247Z,62.81
2022-09-05T08:08:08.339Z,62.13
2022-09-05T08:11:22.511Z,61.53
2022-09-05T08:13:46.455Z,59.68
2022-09-05T08:16:24.158Z,58.38
2022-09-05T08:18:53.138Z,58.65
2022-09-05T08:21:39.775Z,57.39
2022-09-05T08:24:13.780Z,58.52
2022-09-05T08:26:52.622Z,57.87
2022-09-05T08:29:39.701Z,56.18
2022-09-05T08:32:10.651Z,54.26
2022-09-05T08:34:56.658Z,56.00
2022-09-05T08:37:26.109Z,55.06
2022-09-05T08:40:10.859Z,54.55
2022-09-05T08:44:24.437Z,57.09
2022-09-05T08:46:40.700Z,53.60
2022-09-05T08:49:11.321Z,58.38
2022-09-05T08:51:55.401Z,55.99
2022-09-05T08:54:32.068Z,51.89
2022-09-05T08:57:07.262Z,49.14
2022-09-05T08:59:36.655Z,50.08
2022-09-05T09:02:52.028Z,48.57
2022-09-05T09:06:12.253Z,48.25
2022-09-05T09:09:16.586Z,50.06
2022-09-05T09:12:03.330Z,48.55
2022-09-05T09:15:03.347Z,46.79
2022-09-05T09:17:44.550Z,48.35
2022-09-05T09:20:19.852Z,47.92
2022-09-05T09:22:58.694Z,46.72
2022-09-05T09:25:49.267Z,45.62
2022-09-05T09:28:47.986Z,45.34
2022-09-05T09:31:31.371Z,43.70
2022-09-05T09:34:06.977Z,46.12
2022-09-05T09:36:55.369Z,43.83
2022-09-05T09:39:39.301Z,43.36
2022-09-05T09:42:33.191Z,42.39
2022-09-05T09:45:27.874Z,42.69
2022-09-05T09:48:32.198Z,42.41
2022-09-05T09:51:05.124Z,43.66
2022-09-05T09:53:50.280Z,41.81
2022-09-05T09:56:48.002Z,41.17
2022-09-05T09:59:33.233Z,41.73
2022-09-05T10:04:31.282Z,41.63
2022-09-05T10:10:45.620Z,41.04
2022-09-05T10:10:46.170Z,43.64
2022-09-05T10:12:23.162Z,42.44
2022-09-05T10:15:30.516Z,42.55
2022-09-05T10:18:21.885Z,42.23
2022-09-05T10:21:15.659Z,42.09
2022-09-05T10:24:04.656Z,39.22
2022-09-05T10:26:37.086Z,39.05
2022-09-05T10:29:35.000Z,39.05
2022-09-05T10:35:07.966Z,38.41
2022-09-05T10:35:22.284Z,37.62
2022-09-05T10:38:10.743Z,38.11
2022-09-05T10:40:51.428Z,40.07
2022-09-05T10:43:30.116Z,37.63
2022-09-05T10:45:56.745Z,39.52
2022-09-05T10:48:52.915Z,39.63
2022-09-05T10:51:27.919Z,37.29
2022-09-05T10:53:58.699Z,37.28
2022-09-05T10:56:32.031Z,37.31
2022-09-05T10:59:38.737Z,37.79
2022-09-05T11:02:29.728Z,35.39
2022-09-05T11:04:50.579Z,34.88
2022-09-05T11:07:35.592Z,35.47
2022-09-05T11:10:10.176Z,36.09
2022-09-05T11:13:03.582Z,33.66
2022-09-05T11:15:33.969Z,35.73
2022-09-05T11:18:09.819Z,36.84
2022-09-05T11:20:54.647Z,37.06
2022-09-05T11:23:46.213Z,35.61
2022-09-05T11:26:54.526Z,37.04
2022-09-05T11:29:41.392Z,35.79
2022-09-05T11:35:46.709Z,33.41
2022-09-05T11:39:53.714Z,34.64
2022-09-05T11:39:59.041Z,33.78
2022-09-05T11:41:31.234Z,33.83
2022-09-05T11:44:26.131Z,33.43
2022-09-05T11:47:29.807Z,35.26
2022-09-05T11:50:27.448Z,34.94
2022-09-05T11:53:05.248Z,34.59
2022-09-05T11:55:58.633Z,32.01
2022-09-05T11:58:45.033Z,33.15
2022-09-05T12:01:41.544Z,32.23
2022-09-05T12:04:20.450Z,32.19
2022-09-05T12:07:27.065Z,30.89
2022-09-05T12:09:56.759Z,32.06
2022-09-05T12:12:43.447Z,30.56
2022-09-05T12:16:07.324Z,30.54
2022-09-05T12:19:18.763Z,29.09
2022-09-05T12:22:09.023Z,27.89
2022-09-05T12:26:14.118Z,30.47
2022-09-05T12:29:26.671Z,26.25
2022-09-05T12:32:50.618Z,25.81
2022-09-05T12:36:04.141Z,25.99
2022-09-05T12:40:43.240Z,27.00
2022-09-05T12:41:37.998Z,24.93
2022-09-05T12:44:06.050Z,24.59
2022-09-05T12:46:02.282Z,26.00
2022-09-05T12:48:39.253Z,24.16
2022-09-05T12:51:45.457Z,23.78
2022-09-05T12:54:24.556Z,23.56
2022-09-05T13:00:54.122Z,25.22
2022-09-05T13:03:01.183Z,23.61
2022-09-05T13:03:05.725Z,23.22
2022-09-05T13:05:46.491Z,21.19
2022-09-05T13:08:21.223Z,20.40
2022-09-05T13:14:47.446Z,20.19
2022-09-05T13:14:55.454Z,19.32
2022-09-05T13:16:43.913Z,19.13
2022-09-05T13:19:43.462Z,19.70
2022-09-05T13:22:14.706Z,20.39
2022-09-05T13:24:45.647Z,20.20
2022-09-05T13:27:16.114Z,20.17
2022-09-05T13:31:59.644Z,19.89
2022-09-05T13:37:59.938Z,21.15
2022-09-05T13:38:09.896Z,20.05
2022-09-05T13:39:02.078Z,19.35
2022-09-05T13:41:41.991Z,20.32
2022-09-05T13:44:27.488Z,23.53
2022-09-05T13:47:02.019Z,19.89
2022-09-05T13:49:44.801Z,19.60
2022-09-05T13:52:34.506Z,20.94
2022-09-05T13:55:25.163Z,19.94
2022-09-05T13:58:05.120Z,19.52
2022-09-05T14:00:40.499Z,18.27
2022-09-05T14:05:56.484Z,15.87
2022-09-05T14:11:55.835Z,15.80
2022-09-05T14:20:28.248Z,18.27
2022-09-05T14:23:24.293Z,16.60
2022-09-05T14:26:00.136Z,19.81
2022-09-05T14:28:46.622Z,20.33
2022-09-05T14:37:37.007Z,21.06
2022-09-05T14:37:42.860Z,22.46
2022-09-05T14:37:49.008Z,21.32
2022-09-05T14:40:35.302Z,19.68
2022-09-05T14:43:26.884Z,19.34
2022-09-05T14:46:07.318Z,18.95
2022-09-05T14:49:05.552Z,18.43
2022-09-05T14:51:46.518Z,19.03
2022-09-05T15:02:38.613Z,18.84
2022-09-05T15:02:49.129Z,19.47
2022-09-05T15:03:04.571Z,19.01
2022-09-05T15:05:32.014Z,19.73
2022-09-05T15:08:26.932Z,19.34
2022-09-05T15:12:15.727Z,18.96
2022-09-05T15:14:11.160Z,19.45
2022-09-05T15:16:43.589Z,19.90
2022-09-05T15:19:11.119Z,20.08
2022-09-05T15:21:41.334Z,20.41
2022-09-05T15:24:15.758Z,18.72
2022-09-05T15:26:53.544Z,17.15
2022-09-05T15:29:26.726Z,16.91
2022-09-05T15:32:11.886Z,17.63
2022-09-05T15:34:39.080Z,17.78
2022-09-05T15:37:40.392Z,18.80
2022-09-05T15:40:22.590Z,18.50
2022-09-05T15:42:53.435Z,17.50
2022-09-05T15:45:46.931Z,17.13
2022-09-05T15:48:26.278Z,16.99
2022-09-05T15:51:07.351Z,16.93
2022-09-05T15:53:37.648Z,17.54
2022-09-05T15:56:10.099Z,18.24
2022-09-05T15:58:53.490Z,17.97
2022-09-05T16:01:59.854Z,17.97
2022-09-05T16:10:31.286Z,17.80
2022-09-05T16:10:42.877Z,19.89
2022-09-05T16:10:45.440Z,18.94
2022-09-05T16:13:12.939Z,19.61
2022-09-05T16:20:27.806Z,19.97
2022-09-05T16:23:25.131Z,21.02
2022-09-05T16:23:29.518Z,21.48
2022-09-05T16:24:45.121Z,21.44
2022-09-05T16:27:17.989Z,22.67
2022-09-05T16:29:50.556Z,24.56
2022-09-05T16:32:28.624Z,25.70
2022-09-05T16:35:00.364Z,24.59
2022-09-05T16:37:35.771Z,26.40
2022-09-05T16:40:18.529Z,28.36
2022-09-05T16:42:49.441Z,26.46
2022-09-05T16:45:29.588Z,27.12
2022-09-05T16:48:34.370Z,31.10
2022-09-05T16:51:16.871Z,29.21
2022-09-05T16:54:10.380Z,34.68
2022-09-05T16:57:24.245Z,35.04
2022-09-05T16:59:51.301Z,35.86
2022-09-05T17:02:38.721Z,36.39
2022-09-05T17:05:39.279Z,36.66
2022-09-05T17:08:35.584Z,39.15
2022-09-05T17:11:12.273Z,38.74
2022-09-05T17:13:54.444Z,39.54
2022-09-05T17:16:56.424Z,39.41
2022-09-05T17:19:33.749Z,41.85
2022-09-05T17:23:39.148Z,44.64
2022-09-05T17:29:30.887Z,44.84
2022-09-05T17:29:31.063Z,45.17
2022-09-05T17:31:55.903Z,45.79
2022-09-05T17:34:30.025Z,46.26
2022-09-05T17:37:22.543Z,47.24
2022-09-05T17:40:10.126Z,47.68
2022-09-05T17:42:36.858Z,48.53
2022-09-05T17:45:26.454Z,48.17
2022-09-05T17:47:57.609Z,50.25
2022-09-05T17:50:28.205Z,50.65
2022-09-05T17:53:26.062Z,50.55
2022-09-05T17:56:09.399Z,49.61
2022-09-05T17:58:48.991Z,50.73
2022-09-05T18:01:26.890Z,54.05
2022-09-05T18:04:18.011Z,52.86
2022-09-05T18:06:49.015Z,54.03
2022-09-05T18:09:42.870Z,52.93
2022-09-05T18:13:31.596Z,52.74
2022-09-05T18:15:35.631Z,53.40
2022-09-05T18:18:43.658Z,54.05
2022-09-05T18:24:12.822Z,55.57
2022-09-05T18:26:48.847Z,56.27
2022-09-05T18:29:58.850Z,58.62
2022-09-05T18:33:55.297Z,59.45
2022-09-05T18:36:02.255Z,58.79
2022-09-05T18:38:50.244Z,60.86
2022-09-05T18:41:24.749Z,59.44
2022-09-05T18:43:54.679Z,61.00
2022-09-05T18:46:49.800Z,60.48
2022-09-05T18:50:23.817Z,58.61
2022-09-05T18:52:24.236Z,59.92
2022-09-05T18:56:11.664Z,60.68
2022-09-05T18:57:48.651Z,60.88
2022-09-05T19:00:24.783Z,61.23
2022-09-05T19:03:07.709Z,62.16
2022-09-05T19:06:35.589Z,62.00
2022-09-05T19:08:56.765Z,62.46
2022-09-05T19:11:53.347Z,62.84
2022-09-05T19:14:36.395Z,62.26
2022-09-05T19:17:30.137Z,63.27
2022-09-05T19:20:32.486Z,63.46
2022-09-05T19:23:10.969Z,63.87
2022-09-05T19:25:41.331Z,63.48
2022-09-05T19:35:14.092Z,64.64
2022-09-05T19:36:53.410Z,64.57
2022-09-05T19:37:09.791Z,64.78
2022-09-05T19:37:42.878Z,65.00
2022-09-05T19:47:25.412Z,65.61
2022-09-05T19:47:43.623Z,64.86
2022-09-05T19:47:43.634Z,64.07
2022-09-05T19:49:07.463Z,65.98
2022-09-05T19:51:34.503Z,66.27
2022-09-05T19:54:04.610Z,66.58
2022-09-05T19:56:44.370Z,67.16
2022-09-05T19:59:25.207Z,66.72
2022-09-05T20:01:53.106Z,67.15
2022-09-05T20:04:21.077Z,67.74
2022-09-05T20:06:49.654Z,67.33
2022-09-05T20:09:19.018Z,67.86
2022-09-05T20:11:50.791Z,67.96
2022-09-05T20:14:18.673Z,68.90
2022-09-05T20:16:48.135Z,67.16
2022-09-05T20:19:34.404Z,65.36
2022-09-05T20:22:17.409Z,65.83
2022-09-05T20:24:52.536Z,68.18
2022-09-05T20:27:19.432Z,68.93
2022-09-05T20:29:58.050Z,67.15
2022-09-05T20:32:39.441Z,67.99
2022-09-05T20:37:24.065Z,66.86
2022-09-05T20:43:20.297Z,68.16
2022-09-05T20:43:31.288Z,68.65
2022-09-05T20:43:53.116Z,68.92
2022-09-05T20:50:26.083Z,69.68
2022-09-05T20:54:08.675Z,68.59
2022-09-05T20:54:27.128Z,69.30
2022-09-05T20:55:40.196Z,69.66
2022-09-05T20:58:11.490Z,69.53
2022-09-05T21:01:15.708Z,70.16
2022-09-05T21:03:36.604Z,69.04
2022-09-05T21:06:23.030Z,70.54
2022-09-05T21:08:55.823Z,72.07
2022-09-05T21:11:32.597Z,72.58
2022-09-05T21:14:03.419Z,71.07
2022-09-05T21:16:44.884Z,72.13
2022-09-05T21:19:29.447Z,73.70
2022-09-05T21:22:06.384Z,73.21
2022-09-05T21:24:33.441Z,72.84
2022-09-05T21:27:21.827Z,73.26
2022-09-05T21:29:53.025Z,72.35
2022-09-05T21:32:27.975Z,73.40
2022-09-05T21:35:09.250Z,75.75
2022-09-05T21:37:53.587Z,75.07
2022-09-05T21:40:21.301Z,76.09
2022-09-05T21:46:31.672Z,75.75
2022-09-05T21:47:44.916Z,77.28
2022-09-05T21:48:24.133Z,76.30
2022-09-05T21:50:57.262Z,75.87
2022-09-05T21:57:16.884Z,75.90
2022-09-05T21:59:21.755Z,76.48
2022-09-05T22:02:08.387Z,76.57
2022-09-05T22:04:35.622Z,77.07
2022-09-05T22:07:08.090Z,76.77
2022-09-05T22:09:34.611Z,77.67
2022-09-05T22:12:09.692Z,77.58
2022-09-05T22:14:47.784Z,77.29
2022-09-05T22:17:14.443Z,78.73
2022-09-05T22:19:41.254Z,78.06
2022-09-05T22:22:16.941Z,78.80
2022-09-05T22:24:55.383Z,78.98
2022-09-05T22:27:25.936Z,78.16
2022-09-05T22:29:52.905Z,78.25
2022-09-05T22:32:34.769Z,78.82
2022-09-05T22:35:27.283Z,78.37
2022-09-05T22:38:00.257Z,77.29
2022-09-05T22:40:29.045Z,77.93
2022-09-05T22:43:00.845Z,80.03
2022-09-05T22:45:28.798Z,80.44
2022-09-05T22:47:55.506Z,80.15
2022-09-05T22:50:23.015Z,78.98
2022-09-05T22:52:50.119Z,78.81
2022-09-05T22:55:17.438Z,78.58
2022-09-05T22:57:44.015Z,79.78
2022-09-05T23:00:11.207Z,79.17
2022-09-05T23:02:37.763Z,79.54
2022-09-05T23:05:05.618Z,77.15
2022-09-05T23:07:32.503Z,78.42
2022-09-05T23:09:59.476Z,77.93
2022-09-05T23:12:26.153Z,78.55
2022-09-05T23:14:52.811Z,78.40
2022-09-05T23:17:19.320Z,78.11
2022-09-05T23:19:45.850Z,77.29
2022-09-05T23:22:12.392Z,76.90
2022-09-05T23:24:38.911Z,76.73
2022-09-05T23:27:05.475Z,76.96
2022-09-05T23:29:32.005Z,77.99
2022-09-05T23:31:58.528Z,77.53
2022-09-05T23:34:25.632Z,76.17
2022-09-05T23:36:52.182Z,77.30
2022-09-05T23:39:18.734Z,77.10
2022-09-05T23:41:45.271Z,77.37
2022-09-05T23:44:12.031Z,76.06
2022-09-05T23:46:40.421Z,76.28
2022-09-05T23:49:07.166Z,77.02
2022-09-05T23:51:33.784Z,77.03
2022-09-05T23:54:00.338Z,77.68
2022-09-05T23:56:26.882Z,76.84
2022-09-05T23:58:53.431Z,75.83
